Time;durP1;ratioP1;P1;durP2;ratioP2;P2;SDS_P1;SDS_P2;PMS_P1;PMS_P2;Temp;Humidity;BMP_temperature;BMP_pressure;BME280_temperature;BME280_humidity;BME280_pressure;Samples;Min_cycle;Max_cycle;Signal;HPM_P1;HPM_P2
2021/10/02 00:36:29;;;;;;;2.55;0.82;;;13.60;99.90;;;;;;5057840;28;20024;-80
2021/10/02 00:47:05;;;;;;;1.45;0.68;;;14.00;99.90;;;;;;5058539;28;20036;-79
2021/10/02 00:49:34;;;;;;;1.23;0.52;;;13.70;99.90;;;;;;5059748;28;20017;-79
2021/10/02 00:52:00;;;;;;;0.88;0.40;;;13.60;99.90;;;;;;5041215;28;20025;-79
2021/10/02 00:54:26;;;;;;;1.17;0.52;;;14.10;99.90;;;;;;5059540;28;20035;-80
2021/10/02 00:56:52;;;;;;;1.08;0.52;;;13.80;99.90;;;;;;5041456;28;20017;-80
2021/10/02 00:59:17;;;;;;;0.65;0.30;;;13.50;99.90;;;;;;5059792;28;20033;-79
2021/10/02 01:01:51;;;;;;;1.95;0.60;;;13.40;99.90;;;;;;5056352;28;20138;-79
2021/10/02 01:04:24;;;;;;;0.55;0.35;;;13.70;99.90;;;;;;5041290;28;20021;-79
2021/10/02 01:07:25;;;;;;;2.15;0.75;;;13.70;99.90;;;;;;5057275;28;20338;-79
2021/10/02 01:10:13;;;;;;;1.65;0.70;;;13.50;99.90;;;;;;5038234;28;20090;-79
2021/10/02 01:13:08;;;;;;;1.33;0.40;;;13.50;99.90;;;;;;5054829;28;20104;-80
2021/10/02 01:16:07;;;;;;;1.40;0.57;;;13.50;99.90;;;;;;5038850;28;20067;-80
2021/10/02 01:18:51;;;;;;;1.27;0.55;;;13.40;99.90;;;;;;5037862;28;20111;-79
2021/10/02 01:21:39;;;;;;;1.75;0.43;;;13.40;99.90;;;;;;5048683;28;20006;-80
2021/10/02 01:24:31;;;;;;;1.35;0.47;;;13.40;99.90;;;;;;5036851;28;20443;-80
2021/10/02 01:27:14;;;;;;;1.35;0.60;;;13.40;99.90;;;;;;5058780;28;20517;-80
2021/10/02 01:29:42;;;;;;;1.77;0.55;;;13.50;99.90;;;;;;5039350;28;20040;-80
2021/10/02 01:32:19;;;;;;;1.05;0.50;;;13.40;99.90;;;;;;5040871;28;20040;-79
2021/10/02 01:48:49;;;;;;;2.28;1.05;;;13.40;99.90;;;;;;5057739;28;20397;-80
2021/10/02 01:51:15;;;;;;;1.48;0.50;;;13.50;99.90;;;;;;5037404;28;20020;-80
2021/10/02 01:53:43;;;;;;;1.45;0.45;;;13.40;99.90;;;;;;5056253;28;20667;-80
2021/10/02 01:56:12;;;;;;;1.73;0.95;;;13.50;99.90;;;;;;5038005;28;20089;-79
2021/10/02 01:58:38;;;;;;;1.27;0.50;;;13.80;99.90;;;;;;5038472;28;20040;-80
2021/10/02 02:01:05;;;;;;;1.20;0.40;;;13.70;99.90;;;;;;5055451;28;20109;-79
2021/10/02 02:03:36;;;;;;;1.00;0.38;;;13.40;99.90;;;;;;5056611;28;20025;-79
2021/10/02 02:06:02;;;;;;;0.50;0.35;;;13.50;99.90;;;;;;5038417;28;20025;-79
2021/10/02 02:08:29;;;;;;;1.88;0.65;;;13.30;99.90;;;;;;5040642;28;20044;-80
2021/10/02 02:10:56;;;;;;;1.42;0.50;;;13.40;99.90;;;;;;5054337;28;20079;-79
2021/10/02 02:13:25;;;;;;;1.33;0.40;;;13.40;99.90;;;;;;5037641;28;20024;-79
2021/10/02 02:15:52;;;;;;;1.33;0.45;;;13.50;99.90;;;;;;5037845;28;20469;-79
2021/10/02 02:18:22;;;;;;;0.88;0.50;;;13.50;99.90;;;;;;5055507;28;20041;-79
2021/10/02 02:20:59;;;;;;;2.10;0.60;;;13.30;99.90;;;;;;5034430;28;20029;-78
2021/10/02 02:23:26;;;;;;;1.40;0.60;;;13.50;99.90;;;;;;5054857;28;20021;-78
2021/10/02 02:25:53;;;;;;;1.40;0.57;;;13.40;99.90;;;;;;5055543;28;20032;-79
2021/10/02 02:28:21;;;;;;;1.05;0.40;;;13.40;99.90;;;;;;5055616;28;20033;-79
2021/10/02 02:30:47;;;;;;;2.13;0.65;;;13.50;99.90;;;;;;5032003;28;20021;-79
2021/10/02 02:33:16;;;;;;;1.60;0.50;;;13.70;99.90;;;;;;5056104;28;20497;-79
2021/10/02 02:35:43;;;;;;;1.58;0.45;;;13.80;99.90;;;;;;5036952;28;20017;-79
2021/10/02 02:38:09;;;;;;;0.93;0.57;;;13.40;99.90;;;;;;5055374;28;20025;-79
2021/10/02 02:40:35;;;;;;;1.13;0.40;;;13.40;99.90;;;;;;5049602;28;20083;-79
2021/10/02 02:43:01;;;;;;;1.25;0.50;;;13.40;99.90;;;;;;5055754;28;20021;-79
2021/10/02 02:45:27;;;;;;;1.30;0.40;;;13.30;99.90;;;;;;5055316;28;20481;-79
2021/10/02 02:48:09;;;;;;;1.80;0.57;;;13.30;99.90;;;;;;5054527;28;20025;-80
2021/10/02 02:50:58;;;;;;;1.67;0.75;;;13.30;99.90;;;;;;5030778;28;20037;-80
2021/10/02 02:53:53;;;;;;;4.57;1.00;;;13.30;99.90;;;;;;5054902;28;20035;-79
2021/10/02 02:56:35;;;;;;;1.17;0.55;;;13.30;99.90;;;;;;5054546;28;20389;-79
2021/10/02 02:59:09;;;;;;;1.13;0.38;;;13.20;99.90;;;;;;5035193;28;20032;-79
2021/10/02 03:01:39;;;;;;;1.13;0.45;;;13.20;99.90;;;;;;5053477;28;20028;-79
2021/10/02 03:04:09;;;;;;;1.58;0.70;;;13.10;99.90;;;;;;5054935;28;20486;-79
2021/10/02 03:06:40;;;;;;;2.25;0.45;;;13.20;99.90;;;;;;5053728;28;20043;-79
2021/10/02 03:09:06;;;;;;;1.23;0.45;;;13.20;99.90;;;;;;5032653;28;20021;-79
2021/10/02 03:11:33;;;;;;;1.08;0.47;;;13.20;99.90;;;;;;5052768;28;20420;-79
2021/10/02 03:13:59;;;;;;;2.30;0.60;;;13.10;99.90;;;;;;5052649;28;20051;-79
2021/10/02 03:16:28;;;;;;;1.50;0.60;;;13.30;99.90;;;;;;5051574;28;20497;-79
2021/10/02 03:18:58;;;;;;;0.88;0.57;;;13.20;99.90;;;;;;5052339;28;20025;-80
2021/10/02 03:21:25;;;;;;;1.13;0.70;;;12.90;99.90;;;;;;5033335;28;20047;-80
2021/10/02 03:23:51;;;;;;;1.40;0.73;;;13.00;99.90;;;;;;5052002;28;20489;-80
2021/10/02 03:26:18;;;;;;;1.50;0.85;;;13.00;99.90;;;;;;5050991;28;20043;-80
2021/10/02 03:28:44;;;;;;;1.30;0.57;;;13.00;99.90;;;;;;5052046;28;20021;-80
2021/10/02 03:31:11;;;;;;;2.00;0.70;;;13.10;99.90;;;;;;5033450;28;20554;-80
2021/10/02 03:33:38;;;;;;;1.35;0.60;;;12.90;99.90;;;;;;5050746;28;20104;-79
2021/10/02 03:36:04;;;;;;;1.02;0.52;;;13.40;99.90;;;;;;5051594;28;20199;-80
2021/10/02 03:38:30;;;;;;;1.42;0.63;;;13.10;99.90;;;;;;5051856;28;20760;-80
2021/10/02 03:41:00;;;;;;;1.33;0.57;;;13.00;99.90;;;;;;5033303;28;20025;-80
2021/10/02 03:43:29;;;;;;;1.02;0.50;;;13.20;99.90;;;;;;5037485;28;20116;-79
2021/10/02 03:45:55;;;;;;;2.60;0.98;;;13.10;99.90;;;;;;5057375;28;20040;-79
2021/10/02 03:48:21;;;;;;;2.05;0.63;;;13.00;99.90;;;;;;5036256;28;20520;-79
2021/10/02 03:50:46;;;;;;;0.98;0.60;;;13.00;99.90;;;;;;5050558;28;20031;-79
2021/10/02 03:53:12;;;;;;;1.83;0.90;;;13.10;99.90;;;;;;5037593;28;20025;-79
2021/10/02 03:55:37;;;;;;;1.80;0.52;;;12.90;99.90;;;;;;5055140;28;20020;-79
2021/10/02 04:00:31;;;;;;;2.22;0.70;;;13.00;99.90;;;;;;5068259;28;20064;-83
2021/10/02 04:02:57;;;;;;;1.02;0.70;;;13.00;99.90;;;;;;5079328;28;20486;-83
2021/10/02 04:05:22;;;;;;;1.88;0.60;;;13.10;99.90;;;;;;5078832;28;20028;-83
2021/10/02 04:07:48;;;;;;;2.65;0.95;;;12.90;99.90;;;;;;5078677;28;20292;-83
2021/10/02 04:10:14;;;;;;;1.75;0.60;;;13.10;99.90;;;;;;5062087;28;20029;-83
2021/10/02 04:12:39;;;;;;;2.45;0.82;;;12.90;99.90;;;;;;5079157;28;20060;-82
2021/10/02 04:15:06;;;;;;;1.33;0.55;;;12.90;99.90;;;;;;5076955;28;20033;-82
2021/10/02 04:17:32;;;;;;;0.82;0.38;;;12.80;99.90;;;;;;5047920;28;20025;-82
2021/10/02 04:19:58;;;;;;;1.98;0.55;;;14.00;99.90;;;;;;5078508;28;20032;-83
2021/10/02 04:22:23;;;;;;;2.15;0.75;;;12.80;99.90;;;;;;5060862;28;20024;-82
2021/10/02 04:24:49;;;;;;;1.45;0.57;;;13.10;99.90;;;;;;5061866;28;20054;-82
2021/10/02 04:27:15;;;;;;;2.08;0.80;;;12.70;99.90;;;;;;5078123;28;20395;-83
2021/10/02 04:29:41;;;;;;;2.42;0.70;;;13.40;99.90;;;;;;5078710;28;20024;-83
2021/10/02 04:32:06;;;;;;;1.27;0.50;;;12.60;99.90;;;;;;5060178;28;20063;-83
2021/10/02 04:34:32;;;;;;;1.58;0.65;;;13.80;99.90;;;;;;5061343;28;20044;-83
2021/10/02 04:36:58;;;;;;;0.98;0.47;;;12.80;99.90;;;;;;5079281;28;20024;-85
2021/10/02 04:39:26;;;;;;;1.90;0.80;;;13.00;99.90;;;;;;5061352;28;20021;-83
2021/10/02 04:41:52;;;;;;;1.75;0.90;;;12.50;99.90;;;;;;5057783;28;20037;-82
2021/10/02 04:44:18;;;;;;;1.88;0.85;;;13.60;99.90;;;;;;5068670;28;20048;-84
2021/10/02 04:46:43;;;;;;;2.08;0.95;;;12.70;99.90;;;;;;5061648;28;20029;-83
2021/10/02 04:49:09;;;;;;;1.38;0.55;;;12.40;99.90;;;;;;5068130;28;20044;-82
2021/10/02 04:51:36;;;;;;;2.67;1.05;;;12.50;99.90;;;;;;5062369;28;20100;-83
2021/10/02 04:54:02;;;;;;;0.88;0.50;;;13.90;99.90;;;;;;5062676;28;20017;-82
2021/10/02 04:56:28;;;;;;;1.58;0.55;;;12.30;99.90;;;;;;5045074;28;20025;-82
2021/10/02 04:58:54;;;;;;;1.95;0.80;;;12.90;99.90;;;;;;5044468;28;20032;-83
2021/10/02 05:01:20;;;;;;;1.27;0.60;;;12.50;99.90;;;;;;5044725;28;20025;-83
2021/10/02 05:03:46;;;;;;;1.20;0.57;;;12.30;99.90;;;;;;5044718;28;20044;-82
2021/10/02 05:06:11;;;;;;;0.50;0.30;;;12.40;99.90;;;;;;5045426;28;20033;-83
2021/10/02 05:08:37;;;;;;;1.20;0.57;;;12.50;99.90;;;;;;5079658;28;20024;-84
2021/10/02 05:11:04;;;;;;;1.33;0.70;;;13.00;99.90;;;;;;5084207;28;20028;-82
2021/10/02 05:13:32;;;;;;;2.97;0.70;;;12.60;99.90;;;;;;5084530;28;20043;-83
2021/10/02 05:15:58;;;;;;;1.88;0.75;;;12.40;99.90;;;;;;5077948;28;20112;-83
2021/10/02 05:18:24;;;;;;;2.13;0.98;;;12.30;99.90;;;;;;5062420;28;20022;-82
2021/10/02 05:20:49;;;;;;;1.23;0.70;;;12.50;99.90;;;;;;5061292;28;20017;-83
2021/10/02 05:23:15;;;;;;;2.15;0.90;;;12.40;99.90;;;;;;5043853;28;20021;-84
2021/10/02 05:25:41;;;;;;;0.98;0.50;;;12.70;99.90;;;;;;5044199;28;20043;-84
2021/10/02 05:28:07;;;;;;;2.17;0.80;;;12.70;99.90;;;;;;5045373;28;20025;-82
2021/10/02 05:30:32;;;;;;;1.92;0.93;;;12.80;99.90;;;;;;5061469;28;20064;-83
2021/10/02 05:32:58;;;;;;;1.95;0.80;;;12.30;99.90;;;;;;5045069;28;20081;-83
2021/10/02 05:35:24;;;;;;;2.05;0.82;;;12.50;99.90;;;;;;5044708;28;20046;-83
2021/10/02 05:37:50;;;;;;;1.75;0.90;;;12.90;99.90;;;;;;5061902;28;20033;-82
2021/10/02 05:40:16;;;;;;;2.13;0.73;;;12.30;99.90;;;;;;5061908;28;20024;-81
2021/10/02 05:42:42;;;;;;;2.40;0.80;;;12.50;99.90;;;;;;5043803;28;20036;-81
2021/10/02 05:45:07;;;;;;;0.85;0.40;;;13.90;99.90;;;;;;5060135;28;20477;-80
2021/10/02 05:47:33;;;;;;;1.80;0.85;;;12.50;99.90;;;;;;5073110;28;20052;-82
2021/10/02 05:50:00;;;;;;;1.17;0.60;;;12.50;99.90;;;;;;5059985;28;20037;-82
2021/10/02 05:52:27;;;;;;;1.77;0.70;;;12.70;99.90;;;;;;5057849;28;20100;-81
2021/10/02 05:54:53;;;;;;;1.75;0.82;;;12.60;99.90;;;;;;5059769;28;20036;-83
2021/10/02 05:57:19;;;;;;;1.00;0.43;;;12.50;99.90;;;;;;5081183;28;20380;-83
2021/10/02 05:59:46;;;;;;;2.30;0.85;;;12.40;99.90;;;;;;5085571;28;20029;-83
2021/10/02 06:02:12;;;;;;;2.03;0.85;;;12.40;99.90;;;;;;5082134;28;20219;-84
2021/10/02 06:04:38;;;;;;;1.73;0.60;;;12.60;99.90;;;;;;5069806;28;20567;-82
2021/10/02 06:07:03;;;;;;;2.08;1.00;;;13.20;99.90;;;;;;5080215;28;20037;-84
2021/10/02 06:09:29;;;;;;;1.05;0.50;;;12.60;99.90;;;;;;5067024;28;20657;-83
2021/10/02 06:11:55;;;;;;;2.13;0.88;;;12.30;99.90;;;;;;5064586;28;20036;-83
2021/10/02 06:14:20;;;;;;;2.20;0.50;;;12.70;99.90;;;;;;5055176;28;20062;-84
2021/10/02 06:16:46;;;;;;;1.42;0.70;;;12.50;99.90;;;;;;5082175;28;20534;-84
2021/10/02 06:19:12;;;;;;;1.35;0.70;;;12.60;99.90;;;;;;5059962;28;20067;-84
2021/10/02 06:21:37;;;;;;;0.88;0.40;;;12.60;99.90;;;;;;5061680;28;20021;-84
2021/10/02 06:24:04;;;;;;;2.45;0.85;;;12.50;99.90;;;;;;5056809;28;20033;-84
2021/10/02 06:26:31;;;;;;;2.10;0.77;;;12.30;99.90;;;;;;5083071;28;20024;-84
2021/10/02 06:28:57;;;;;;;1.83;0.73;;;12.30;99.90;;;;;;5080173;28;20029;-84
2021/10/02 06:31:24;;;;;;;2.20;0.80;;;12.00;99.90;;;;;;5080352;28;20031;-82
2021/10/02 06:33:50;;;;;;;1.10;0.45;;;12.00;99.90;;;;;;5080411;28;20039;-83
2021/10/02 06:36:16;;;;;;;2.63;1.20;;;12.40;99.90;;;;;;5059160;28;20021;-81
2021/10/02 06:38:42;;;;;;;1.73;0.68;;;12.50;99.90;;;;;;5060579;28;20074;-83
2021/10/02 06:41:09;;;;;;;1.40;0.85;;;12.50;99.90;;;;;;5059987;28;20036;-82
2021/10/02 06:43:35;;;;;;;1.42;0.70;;;12.90;99.90;;;;;;5058409;28;20029;-83
2021/10/02 06:46:03;;;;;;;2.55;1.00;;;13.00;99.90;;;;;;5060525;28;20473;-83
2021/10/02 06:48:31;;;;;;;2.92;1.00;;;13.00;99.90;;;;;;5071672;23;20101;-83
2021/10/02 06:50:59;;;;;;;2.40;0.90;;;13.00;99.90;;;;;;4981977;28;20101;-83
2021/10/02 06:53:30;;;;;;;2.17;1.08;;;12.80;99.90;;;;;;4983843;28;20423;-83
2021/10/02 06:55:57;;;;;;;1.88;0.70;;;14.50;99.90;;;;;;4993161;28;20038;-85
2021/10/02 06:58:23;;;;;;;2.72;0.73;;;12.80;99.90;;;;;;4996498;28;20058;-82
2021/10/02 07:00:48;;;;;;;2.03;0.70;;;13.00;99.90;;;;;;4971569;28;20016;-82
2021/10/02 07:03:14;;;;;;;2.22;0.73;;;13.00;99.90;;;;;;4976338;28;20019;-82
2021/10/02 07:05:40;;;;;;;1.73;0.82;;;13.00;99.90;;;;;;4973635;28;20032;-83
2021/10/02 07:08:05;;;;;;;2.03;0.80;;;12.90;99.90;;;;;;4971996;28;20073;-81
2021/10/02 07:10:31;;;;;;;2.47;1.40;;;13.10;99.90;;;;;;4980847;28;20017;-83
2021/10/02 07:12:57;;;;;;;2.50;1.13;;;12.80;99.90;;;;;;4974037;28;20027;-82
2021/10/02 07:15:23;;;;;;;1.50;0.77;;;13.70;99.90;;;;;;4970914;28;20035;-83
2021/10/02 07:17:50;;;;;;;1.67;0.98;;;12.90;99.90;;;;;;4937334;28;20122;-82
2021/10/02 07:20:16;;;;;;;1.58;0.80;;;13.40;99.90;;;;;;4978368;28;20024;-83
2021/10/02 07:22:43;;;;;;;2.17;0.68;;;13.20;99.90;;;;;;5000277;28;20109;-81
2021/10/02 07:25:11;;;;;;;1.42;0.70;;;13.40;99.90;;;;;;5019774;28;20031;-82
2021/10/02 07:27:38;;;;;;;2.35;0.93;;;13.10;99.90;;;;;;4965269;28;20432;-81
2021/10/02 07:30:05;;;;;;;1.80;1.10;;;13.70;99.90;;;;;;5013756;28;20027;-82
2021/10/02 07:32:32;;;;;;;1.92;0.90;;;13.20;99.90;;;;;;5016711;28;20116;-82
2021/10/02 07:34:58;;;;;;;1.67;0.70;;;13.40;99.90;;;;;;4970341;28;20451;-82
2021/10/02 07:37:24;;;;;;;2.15;0.85;;;13.30;99.90;;;;;;4959208;28;20476;-82
2021/10/02 07:39:50;;;;;;;2.47;0.90;;;13.50;99.90;;;;;;4958871;28;20113;-83
2021/10/02 07:42:17;;;;;;;4.05;1.40;;;13.40;99.90;;;;;;4964959;28;20057;-82
2021/10/02 07:44:48;;;;;;;2.00;0.93;;;13.40;99.90;;;;;;4957926;28;20125;-81
2021/10/02 07:47:15;;;;;;;1.40;0.73;;;13.30;99.90;;;;;;4981532;28;20032;-83
2021/10/02 07:49:41;;;;;;;3.00;1.15;;;13.50;99.90;;;;;;4975613;28;20023;-81
2021/10/02 07:52:07;;;;;;;1.95;0.95;;;14.40;99.90;;;;;;4964408;28;20088;-82
2021/10/02 07:54:40;;;;;;;1.13;0.80;;;13.80;99.90;;;;;;4958809;28;20021;-82
2021/10/02 07:57:06;;;;;;;1.40;0.73;;;14.00;99.90;;;;;;4945552;28;20024;-82
2021/10/02 07:59:32;;;;;;;1.52;0.55;;;14.00;99.90;;;;;;4971377;28;20105;-82
2021/10/02 08:01:59;;;;;;;2.00;0.65;;;14.30;99.90;;;;;;4959159;28;20061;-84
2021/10/02 08:04:24;;;;;;;1.73;0.85;;;14.50;99.90;;;;;;4976703;28;20131;-82
2021/10/02 08:06:51;;;;;;;1.98;0.70;;;14.60;99.90;;;;;;4980930;28;20058;-81
2021/10/02 08:09:17;;;;;;;1.92;1.08;;;14.60;99.90;;;;;;4968975;28;20046;-81
2021/10/02 08:11:43;;;;;;;2.33;0.68;;;14.60;99.90;;;;;;4972555;28;20039;-82
2021/10/02 08:14:13;;;;;;;2.15;0.75;;;14.90;99.90;;;;;;4979728;28;20630;-83
2021/10/02 08:16:39;;;;;;;2.03;0.70;;;15.00;99.90;;;;;;5008942;28;20017;-83
2021/10/02 08:19:09;;;;;;;1.95;0.60;;;14.90;99.90;;;;;;5015056;28;20223;-83
2021/10/02 08:21:39;;;;;;;1.63;0.40;;;15.00;99.90;;;;;;4995849;28;20031;-81
2021/10/02 08:24:05;;;;;;;4.43;0.93;;;15.30;99.90;;;;;;4963371;28;20039;-82
2021/10/02 08:26:32;;;;;;;1.15;0.57;;;15.40;99.90;;;;;;4962682;28;20513;-82
2021/10/02 08:29:02;;;;;;;1.13;0.50;;;15.70;99.90;;;;;;4958822;28;20036;-83
2021/10/02 08:31:28;;;;;;;1.50;0.60;;;15.60;99.90;;;;;;4966493;28;20040;-81
2021/10/02 08:33:57;;;;;;;1.65;0.60;;;15.70;99.90;;;;;;5009286;28;20035;-81
2021/10/02 08:36:22;;;;;;;1.35;0.50;;;16.10;99.90;;;;;;5062586;28;20025;-82
2021/10/02 08:38:51;;;;;;;1.70;0.65;;;16.00;99.90;;;;;;5045503;28;20039;-82
2021/10/02 08:41:19;;;;;;;1.45;0.50;;;16.10;99.90;;;;;;4946210;28;20369;-81
2021/10/02 08:43:50;;;;;;;0.98;0.30;;;16.90;99.90;;;;;;4951117;28;20491;-80
2021/10/02 08:46:16;;;;;;;0.47;0.30;;;16.40;99.90;;;;;;4968735;28;20035;-81
2021/10/02 08:48:48;;;;;;;1.08;0.38;;;16.50;99.90;;;;;;4984934;28;20033;-81
2021/10/02 08:51:14;;;;;;;0.55;0.20;;;16.60;99.90;;;;;;5020140;28;20028;-81
2021/10/02 08:53:40;;;;;;;1.38;0.60;;;17.00;99.90;;;;;;5030798;28;20029;-83
2021/10/02 08:56:06;;;;;;;0.93;0.47;;;16.90;99.90;;;;;;5001828;28;20066;-82
2021/10/02 08:58:34;;;;;;;1.85;0.55;;;17.10;99.90;;;;;;4955099;28;21030;-81
2021/10/02 09:01:00;;;;;;;1.63;0.40;;;17.20;99.90;;;;;;4960454;28;20510;-82
2021/10/02 09:03:27;;;;;;;1.02;0.40;;;17.20;99.90;;;;;;4964725;28;20023;-83
2021/10/02 09:05:53;;;;;;;1.77;0.40;;;17.40;99.90;;;;;;4965083;28;20035;-82
2021/10/02 09:08:19;;;;;;;0.57;0.30;;;17.20;99.90;;;;;;4958652;28;20030;-83
2021/10/02 09:10:45;;;;;;;0.60;0.30;;;17.70;99.90;;;;;;4960686;28;20499;-83
2021/10/02 09:13:10;;;;;;;0.70;0.30;;;17.80;99.90;;;;;;4952149;28;20028;-83
2021/10/02 09:15:36;;;;;;;1.02;0.50;;;18.00;99.90;;;;;;4965237;28;20039;-82
2021/10/02 09:18:02;;;;;;;0.68;0.40;;;17.90;99.90;;;;;;4963687;28;20028;-82
2021/10/02 09:20:28;;;;;;;0.43;0.20;;;18.10;99.90;;;;;;4969161;28;20036;-82
2021/10/02 09:22:56;;;;;;;0.47;0.22;;;18.20;99.90;;;;;;4962539;28;20205;-83
2021/10/02 09:25:23;;;;;;;0.77;0.22;;;18.20;99.90;;;;;;4968356;28;20506;-83
2021/10/02 09:28:08;;;;;;;0.90;0.30;;;18.20;99.90;;;;;;4968117;28;20542;-83
2021/10/02 09:30:37;;;;;;;1.33;0.40;;;18.20;99.90;;;;;;4983504;28;20059;-82
2021/10/02 09:33:22;;;;;;;0.43;0.20;;;18.40;99.90;;;;;;4971856;28;20031;-83
2021/10/02 09:35:49;;;;;;;0.80;0.45;;;18.50;99.90;;;;;;4970592;28;20039;-81
2021/10/02 09:38:17;;;;;;;0.47;0.15;;;18.60;99.90;;;;;;4977657;28;20016;-82
2021/10/02 09:41:01;;;;;;;0.15;0.15;;;18.60;99.90;;;;;;4965584;28;20024;-82
2021/10/02 09:43:28;;;;;;;0.88;0.40;;;19.20;99.90;;;;;;4973294;28;20027;-81
2021/10/02 09:45:54;;;;;;;1.30;0.30;;;18.90;99.90;;;;;;4972009;28;20024;-81
2021/10/02 09:48:32;;;;;;;0.95;0.30;;;19.10;99.90;;;;;;4978175;28;20049;-80
2021/10/02 09:51:06;;;;;;;0.25;0.17;;;19.30;99.90;;;;;;4973768;28;20031;-81
2021/10/02 09:53:41;;;;;;;0.40;0.20;;;19.40;99.90;;;;;;4962566;28;20025;-82
2021/10/02 09:56:11;;;;;;;0.40;0.20;;;19.50;99.90;;;;;;4970890;28;20039;-82
2021/10/02 09:58:43;;;;;;;0.98;0.30;;;19.60;99.90;;;;;;4967974;28;20032;-82
2021/10/02 10:01:21;;;;;;;0.75;0.30;;;18.90;99.70;;;;;;4981268;28;20388;-81
2021/10/02 10:03:49;;;;;;;0.73;0.25;;;19.80;99.60;;;;;;4990691;28;20027;-83
2021/10/02 10:06:22;;;;;;;1.05;0.20;;;19.80;99.80;;;;;;4981396;28;20020;-82
2021/10/02 10:09:10;;;;;;;0.88;0.25;;;19.80;99.90;;;;;;4963790;28;20035;-83
2021/10/02 10:11:47;;;;;;;1.15;0.40;;;20.00;99.90;;;;;;5021235;22;20046;-82
2021/10/02 10:14:27;;;;;;;0.82;0.40;;;20.10;99.10;;;;;;5031464;28;20090;-81
2021/10/02 10:16:56;;;;;;;1.13;0.30;;;20.20;98.90;;;;;;5031254;28;20030;-80
2021/10/02 10:19:24;;;;;;;0.90;0.35;;;20.40;98.60;;;;;;5033809;28;20021;-81
2021/10/02 10:22:19;;;;;;;0.95;0.43;;;20.50;99.20;;;;;;5035810;28;20041;-81
2021/10/02 10:24:53;;;;;;;0.93;0.35;;;20.50;98.50;;;;;;5025036;28;20033;-81
2021/10/02 10:27:41;;;;;;;1.13;0.40;;;20.50;98.10;;;;;;5028131;28;20394;-82
2021/10/02 10:30:13;;;;;;;0.63;0.20;;;20.50;98.10;;;;;;5035271;28;20029;-80
2021/10/02 10:33:05;;;;;;;0.50;0.25;;;20.50;98.00;;;;;;5029463;28;20030;-79
2021/10/02 10:35:40;;;;;;;0.68;0.30;;;20.50;98.40;;;;;;5033914;28;20029;-79
2021/10/02 10:38:14;;;;;;;0.85;0.30;;;20.60;98.30;;;;;;5034444;28;20029;-80
2021/10/02 10:40:41;;;;;;;0.95;0.47;;;20.80;98.10;;;;;;5033469;28;20429;-80
2021/10/02 10:43:07;;;;;;;0.55;0.30;;;20.80;97.80;;;;;;5034373;28;20489;-80
2021/10/02 10:45:36;;;;;;;1.17;0.40;;;20.80;97.80;;;;;;5032175;28;20033;-80
2021/10/02 10:48:05;;;;;;;0.88;0.40;;;20.90;98.10;;;;;;5034482;28;20535;-79
2021/10/02 10:50:31;;;;;;;1.10;0.35;;;21.00;98.00;;;;;;5030131;28;20013;-87
2021/10/02 10:53:01;;;;;;;1.63;0.40;;;20.90;97.70;;;;;;5028662;28;20061;-87
2021/10/02 10:55:27;;;;;;;0.77;0.30;;;20.90;97.50;;;;;;5033412;28;20064;-87
2021/10/02 10:57:56;;;;;;;0.80;0.30;;;20.80;97.50;;;;;;5026660;28;20025;-87
2021/10/02 11:00:40;;;;;;;0.82;0.40;;;20.80;97.90;;;;;;5027374;28;21200;-87
2021/10/02 11:03:08;;;;;;;1.75;0.40;;;20.90;97.90;;;;;;5029794;28;20020;-86
2021/10/02 11:05:37;;;;;;;1.00;0.30;;;20.80;97.60;;;;;;5015484;28;20060;-87
2021/10/02 11:08:04;;;;;;;0.80;0.30;;;20.80;97.70;;;;;;5037238;28;20033;-86
2021/10/02 11:10:44;;;;;;;0.65;0.38;;;20.80;98.20;;;;;;5028943;28;20037;-86
2021/10/02 11:13:15;;;;;;;1.00;0.45;;;21.10;97.90;;;;;;5025968;28;20033;-86
2021/10/02 11:15:42;;;;;;;1.25;0.60;;;21.00;98.30;;;;;;5026533;28;20025;-86
2021/10/02 11:18:44;;;;;;;0.82;0.30;;;21.30;98.20;;;;;;5026695;28;20131;-85
2021/10/02 11:21:11;;;;;;;;;;;21.40;97.50;;;;;;5030441;28;20502;-87
2021/10/02 11:23:39;;;;;;;0.70;0.20;;;21.30;97.40;;;;;;5028299;28;20023;-87
2021/10/02 11:26:25;;;;;;;0.93;0.30;;;21.60;97.40;;;;;;5026907;28;20032;-86
2021/10/02 11:29:00;;;;;;;1.85;0.50;;;21.40;96.50;;;;;;5024533;28;20087;-87
2021/10/02 11:31:27;;;;;;;1.10;0.30;;;21.40;97.20;;;;;;5026141;28;20040;-87
2021/10/02 11:33:54;;;;;;;1.58;0.40;;;22.60;96.90;;;;;;5015344;28;20127;-87
2021/10/02 11:36:31;;;;;;;1.73;0.30;;;21.60;96.70;;;;;;5026651;28;20072;-87
2021/10/02 11:39:11;;;;;;;0.85;0.38;;;21.70;96.70;;;;;;5025831;28;20029;-87
2021/10/02 11:41:46;;;;;;;0.73;0.30;;;21.90;97.00;;;;;;5023429;28;20021;-86
2021/10/02 11:44:18;;;;;;;0.60;0.20;;;21.80;97.00;;;;;;5027484;28;20033;-85
2021/10/02 11:46:44;;;;;;;1.63;0.50;;;21.70;96.30;;;;;;5027159;28;20501;-87
2021/10/02 11:49:20;;;;;;;1.08;0.30;;;21.90;96.10;;;;;;5028334;28;20084;-84
2021/10/02 11:52:12;;;;;;;0.88;0.45;;;21.80;96.10;;;;;;5029243;28;20501;-86
2021/10/02 11:54:38;;;;;;;0.40;0.20;;;21.90;96.10;;;;;;5027821;28;20112;-86
2021/10/02 11:57:16;;;;;;;0.60;0.30;;;22.00;95.70;;;;;;5033310;28;20026;-86
2021/10/02 11:59:46;;;;;;;1.20;0.30;;;22.20;95.80;;;;;;5032958;28;20033;-85
2021/10/02 12:02:13;;;;;;;1.33;0.40;;;22.20;95.00;;;;;;5035586;28;20072;-87
2021/10/02 12:04:40;;;;;;;1.38;0.50;;;22.30;95.50;;;;;;5037081;28;20084;-86
2021/10/02 12:07:08;;;;;;;0.82;0.32;;;22.30;94.70;;;;;;5037105;28;20035;-86
2021/10/02 12:09:33;;;;;;;1.17;0.35;;;22.40;94.50;;;;;;5036923;28;20025;-86
2021/10/02 12:12:01;;;;;;;0.95;0.30;;;22.30;94.60;;;;;;5037052;28;20041;-86
2021/10/02 12:14:28;;;;;;;1.02;0.45;;;22.30;94.30;;;;;;5042031;28;20072;-86
2021/10/02 12:17:02;;;;;;;1.08;0.28;;;22.60;94.70;;;;;;5030307;28;20513;-86
2021/10/02 12:19:30;;;;;;;0.45;0.15;;;22.40;94.10;;;;;;5036295;28;20068;-86
2021/10/02 12:21:58;;;;;;;0.85;0.22;;;22.60;94.60;;;;;;5026116;28;20021;-86
2021/10/02 12:24:30;;;;;;;0.63;0.38;;;22.70;93.90;;;;;;5034657;28;20538;-86
2021/10/02 12:27:07;;;;;;;0.60;0.30;;;22.70;94.30;;;;;;5032973;28;20035;-86
2021/10/02 12:29:39;;;;;;;0.98;0.28;;;22.80;93.70;;;;;;5031311;28;20561;-86
2021/10/02 12:32:22;;;;;;;1.58;0.20;;;22.70;93.30;;;;;;5034709;28;20047;-88
2021/10/02 12:34:49;;;;;;;1.10;0.40;;;22.60;93.40;;;;;;5030488;28;20026;-88
2021/10/02 12:37:21;;;;;;;0.20;0.20;;;22.70;93.50;;;;;;5032659;28;20028;-88
2021/10/02 12:39:58;;;;;;;1.05;0.40;;;23.00;93.70;;;;;;5033155;28;20018;-87
2021/10/02 12:42:44;;;;;;;1.25;0.40;;;22.70;93.50;;;;;;5034196;28;20087;-87
2021/10/02 12:45:28;;;;;;;0.40;0.20;;;22.60;93.40;;;;;;5031425;28;20096;-87
2021/10/02 12:48:00;;;;;;;1.67;0.30;;;22.60;93.70;;;;;;5028199;28;20049;-87
2021/10/02 12:50:29;;;;;;;0.70;0.30;;;22.60;93.80;;;;;;5031612;28;20108;-89
2021/10/02 12:52:57;;;;;;;0.73;0.28;;;22.60;93.40;;;;;;5029663;28;20048;-88
2021/10/02 12:55:24;;;;;;;2.13;0.40;;;22.70;93.80;;;;;;5029106;28;20029;-89
2021/10/02 12:57:50;;;;;;;0.50;0.30;;;22.80;93.50;;;;;;5029235;28;20018;-89
2021/10/02 13:00:19;;;;;;;1.15;0.30;;;22.90;93.60;;;;;;5030429;28;20103;-88
2021/10/02 13:02:45;;;;;;;0.98;0.30;;;23.10;93.30;;;;;;5030164;28;20022;-87
2021/10/02 13:05:19;;;;;;;0.35;0.20;;;23.10;92.80;;;;;;5031786;28;20095;-87
2021/10/02 13:07:52;;;;;;;1.08;0.30;;;23.70;91.70;;;;;;5031406;28;20665;-87
2021/10/02 13:10:22;;;;;;;1.02;0.30;;;23.10;91.80;;;;;;5031763;28;20045;-87
2021/10/02 13:12:59;;;;;;;0.30;0.15;;;23.30;91.60;;;;;;5025431;28;20780;-87
2021/10/02 13:15:31;;;;;;;0.77;0.30;;;23.40;90.80;;;;;;5031004;28;20093;-87
2021/10/02 13:18:00;;;;;;;1.25;0.40;;;23.50;90.80;;;;;;5025421;28;20365;-86
2021/10/02 13:20:27;;;;;;;1.13;0.40;;;23.70;90.80;;;;;;5029629;28;20022;-87
2021/10/02 13:22:52;;;;;;;0.75;0.30;;;23.80;90.10;;;;;;5031269;28;20041;-88
2021/10/02 13:25:26;;;;;;;0.60;0.20;;;23.80;90.30;;;;;;5029903;28;20494;-89
2021/10/02 13:27:54;;;;;;;1.52;0.40;;;23.90;90.00;;;;;;5013704;28;20089;-90
2021/10/02 13:30:22;;;;;;;0.47;0.20;;;24.10;90.10;;;;;;5013479;28;20447;-88
2021/10/02 13:32:58;;;;;;;1.13;0.40;;;24.20;90.10;;;;;;5030329;28;20033;-89
2021/10/02 13:35:26;;;;;;;0.88;0.30;;;24.30;90.30;;;;;;5032831;28;20053;-89
2021/10/02 13:37:53;;;;;;;1.05;0.20;;;24.40;89.40;;;;;;5032932;28;20025;-90
2021/10/02 13:40:32;;;;;;;0.57;0.20;;;24.30;88.30;;;;;;5032492;28;20029;-89
2021/10/02 13:43:02;;;;;;;0.80;0.30;;;24.50;88.40;;;;;;5035046;28;20395;-90
2021/10/02 13:45:34;;;;;;;0.10;0.10;;;24.10;88.40;;;;;;5036794;28;20076;-90
2021/10/02 13:48:07;;;;;;;0.30;0.20;;;23.90;88.10;;;;;;5037146;28;20029;-90
2021/10/02 13:50:34;;;;;;;0.73;0.40;;;24.20;88.90;;;;;;5033738;28;20045;-90
2021/10/02 13:53:00;;;;;;;0.68;0.30;;;24.30;87.90;;;;;;5033199;28;20025;-90
2021/10/02 13:55:28;;;;;;;0.60;0.28;;;23.70;87.50;;;;;;5032338;28;20127;-89
2021/10/02 13:57:54;;;;;;;0.98;0.50;;;24.30;89.20;;;;;;5032024;28;20026;-89
2021/10/02 14:00:19;;;;;;;0.77;0.40;;;24.60;89.60;;;;;;5031478;28;20116;-90